Hlavní strana
METAR-TAF:

METAR-TAF

Letiště :

Vamdrup

Kolding, Dánsko

zeměpisná šířka: 55-26N, zeměpisná délka: 009-20E, výška: 44 m

Aktuální stav počasí

Zpráva byla vytvořena před 1 hodinou a 13 minutami, v 14:50 UTC
Západní vítr 14 kt
Teplota 5°C
Vlhkost vzduchu 87%
Tlak 999 hPa
Viditelnost 10 km a více
Oblačno až skoro zataženo ve výšce 2000 ft

METAR: EKVD 231450Z 28014KT 9999 BKN020 05/03 Q0999

Čas: 17:03 (16:03 UTC)

Předpověď počasí

Zpráva byla vytvořena před 4 hodinami a 19 minutami, v 11:44 UTC
Předpověď platná od 23 v 12 UTC do 23 v 16 UTC
Západní vítr 12 kt
Viditelnost 10 km a více
Oblačno až skoro zataženo ve výšce 2000 ft
Dočasný
od 23 v 12 UTC do 23 v 16 UTC
Západní vítr 15 kt s nárazy do 25 kt
Oblačno až skoro zataženo ve výšce 1200 ft
Polojasno ve výšce 2000 ft, Cumulonimbus.
dešťové přeháňky, malé kroupy nebo krupky

TAF: EKVD 231144Z 2312/2316 26012KT 9999 BKN020 TEMPO 2312/2316 27015G25KT SHRAGS BKN012 SCT020CB

Stav a předpovědi počasí z více než 4 000 letišť (zprávy METAR a TAF).

Červené a žluté tečky na mapě představují dostupné meteorologické stanice.

Když kurzor umístíte na tečku, zobrazí se název stanice.

Pak kliknutím zobrazíte stav a předpověď počasí.

Chcete-li změnit mapu, kliknutím na zelené tlačítko se znaménkem +mapu přiblížíte, kliknutím na zelené tlačítko se znaménkem – mapu oddálíte a kliknutím na zelené šipky přejdete na sousední mapy.


METAR-TAF: